createdAt,value
2017-02-22T00:00:33.165Z,96.45
2017-02-22T00:01:43.915Z,96.73
2017-02-22T00:02:54.644Z,96.83
2017-02-22T00:04:05.355Z,96.83
2017-02-22T00:05:15.655Z,96.83
2017-02-22T00:06:26.352Z,96.64
2017-02-22T00:07:37.048Z,96.73
2017-02-22T00:08:47.783Z,96.64
2017-02-22T00:09:58.078Z,96.54
2017-02-22T00:11:07.993Z,96.35
2017-02-22T00:12:18.718Z,96.35
2017-02-22T00:13:29.415Z,96.64
2017-02-22T00:14:40.108Z,97.01
2017-02-22T00:15:50.805Z,96.45
2017-02-22T00:17:01.138Z,96.45
2017-02-22T00:18:11.445Z,96.64
2017-02-22T00:19:21.749Z,96.92
2017-02-22T00:20:32.440Z,96.64
2017-02-22T00:21:43.137Z,96.26
2017-02-22T00:22:53.840Z,96.07
2017-02-22T00:24:04.530Z,96.16
2017-02-22T00:25:14.858Z,96.35
2017-02-22T00:26:25.545Z,96.07
2017-02-22T00:27:36.262Z,96.07
2017-02-22T00:28:46.959Z,96.26
2017-02-22T00:29:56.880Z,96.26
2017-02-22T00:31:07.586Z,96.64
2017-02-22T00:32:17.889Z,97.2
2017-02-22T00:33:28.597Z,96.92
2017-02-22T00:34:39.288Z,97.39
2017-02-22T00:35:49.595Z,97.58
2017-02-22T00:37:00.311Z,97.39
2017-02-22T00:38:11.008Z,97.39
2017-02-22T00:39:24.018Z,98.24
2017-02-22T00:40:34.711Z,97.67
2017-02-22T00:41:45.431Z,97.2
2017-02-22T00:42:56.114Z,97.67
2017-02-22T00:44:06.837Z,98.24
2017-02-22T00:45:17.137Z,97.96
2017-02-22T00:46:27.827Z,98.24
2017-02-22T00:47:38.522Z,97.67
2017-02-22T00:48:48.850Z,97.49
2017-02-22T00:49:58.760Z,97.39
2017-02-22T00:51:09.066Z,98.33
2017-02-22T00:52:19.798Z,98.24
2017-02-22T00:53:30.493Z,97.67
2017-02-22T00:54:41.181Z,97.39
2017-02-22T00:55:51.873Z,97.3
2017-02-22T00:57:02.165Z,97.58
2017-02-22T00:58:12.874Z,97.49
2017-02-22T00:59:23.559Z,97.96
2017-02-22T01:00:34.255Z,98.43
2017-02-22T01:01:44.946Z,98.38
2017-02-22T01:02:55.670Z,98.57
2017-02-22T01:04:06.413Z,99.33
2017-02-22T01:05:17.120Z,99.14
2017-02-22T01:06:27.816Z,98.76
2017-02-22T01:07:38.521Z,99.33
2017-02-22T01:08:49.215Z,99.23
2017-02-22T01:09:59.907Z,99.71
2017-02-22T01:11:10.208Z,99.42
2017-02-22T01:12:20.923Z,99.52
2017-02-22T01:13:31.623Z,99.33
2017-02-22T01:14:42.310Z,99.57
2017-02-22T01:15:52.609Z,99.89
2017-02-22T01:17:02.919Z,99.19
2017-02-22T01:18:13.622Z,99.99
2017-02-22T01:19:24.349Z,99.71
2017-02-22T01:20:35.037Z,99.33
2017-02-22T01:21:45.728Z,99.42
2017-02-22T01:22:56.452Z,99.66
2017-02-22T01:24:06.774Z,99.19
2017-02-22T01:25:17.464Z,99.33
2017-02-22T01:26:28.164Z,98.85
2017-02-22T01:27:38.855Z,99.33
2017-02-22T01:28:49.605Z,98.85
2017-02-22T01:30:00.365Z,99.23
2017-02-22T01:31:10.670Z,99.33
2017-02-22T01:32:20.972Z,98.95
2017-02-22T01:33:31.665Z,98.57
2017-02-22T01:34:42.376Z,98.66
2017-02-22T01:35:52.700Z,98.85
2017-02-22T01:37:03.403Z,99.33
2017-02-22T01:38:14.092Z,99.61
2017-02-22T01:39:24.421Z,99.33
2017-02-22T01:40:35.122Z,99.42
2017-02-22T01:41:45.821Z,99.14
2017-02-22T01:42:55.729Z,99.33
2017-02-22T01:44:06.422Z,99.23
2017-02-22T01:45:17.132Z,99.14
2017-02-22T01:46:27.834Z,99.42
2017-02-22T01:47:38.523Z,99.23
2017-02-22T01:48:49.211Z,99.04
2017-02-22T01:49:59.918Z,99.23
2017-02-22T01:51:10.212Z,99.42
2017-02-22T01:52:20.912Z,99.71
2017-02-22T01:53:31.609Z,99.52
2017-02-22T01:54:42.300Z,99.42
2017-02-22T01:55:52.605Z,99.52
2017-02-22T01:57:03.302Z,99.14
2017-02-22T01:58:14.011Z,98.85
2017-02-22T01:59:24.312Z,99.61
2017-02-22T02:00:35.015Z,98.76
2017-02-22T02:01:45.726Z,99.23
2017-02-22T02:02:56.424Z,98.95
2017-02-22T02:04:07.113Z,99.42
2017-02-22T02:05:17.813Z,99.8
2017-02-22T02:06:28.542Z,99.99
2017-02-22T02:07:39.261Z,99.42
2017-02-22T02:08:49.981Z,99.99
2017-02-22T02:10:00.292Z,99.42
2017-02-22T02:11:10.988Z,99.99
2017-02-22T02:12:21.704Z,99.99
2017-02-22T02:13:32.403Z,99.99
2017-02-22T02:14:43.118Z,99.99
2017-02-22T02:15:53.827Z,99.99
2017-02-22T02:17:04.512Z,99.99
2017-02-22T02:18:15.200Z,99.99
2017-02-22T02:19:25.498Z,99.99
2017-02-22T02:20:36.191Z,99.99
2017-02-22T02:21:46.894Z,99.99
2017-02-22T02:22:57.185Z,99.99
2017-02-22T02:24:07.507Z,99.99
2017-02-22T02:25:17.819Z,99.89
2017-02-22T02:26:28.510Z,99.99
2017-02-22T02:27:39.209Z,99.99
2017-02-22T02:28:49.915Z,99.99
2017-02-22T02:30:00.631Z,99.99
2017-02-22T02:31:11.341Z,99.99
2017-02-22T02:32:21.645Z,99.99
2017-02-22T02:33:32.359Z,99.99
2017-02-22T02:34:43.056Z,99.8
2017-02-22T02:35:53.765Z,99.89
2017-02-22T02:37:04.490Z,99.61
2017-02-22T02:38:15.187Z,99.99
2017-02-22T02:39:25.913Z,99.99
2017-02-22T02:40:36.607Z,99.99
2017-02-22T02:41:47.313Z,99.99
2017-02-22T02:42:58.007Z,99.89
2017-02-22T02:44:08.712Z,99.89
2017-02-22T02:45:19.032Z,99.99
2017-02-22T02:46:29.739Z,99.99
2017-02-22T02:47:40.443Z,99.99
2017-02-22T02:48:51.174Z,99.99
2017-02-22T02:50:01.874Z,99.99
2017-02-22T02:51:12.574Z,99.99
2017-02-22T02:52:23.284Z,99.99
2017-02-22T02:53:33.999Z,99.99
2017-02-22T02:54:44.297Z,99.99
2017-02-22T02:55:54.223Z,99.99
2017-02-22T02:57:04.534Z,99.99
2017-02-22T02:58:15.238Z,99.99
2017-02-22T02:59:25.937Z,99.99
2017-02-22T03:00:36.631Z,99.99
2017-02-22T03:01:47.324Z,99.99
2017-02-22T03:02:58.033Z,99.99
2017-02-22T03:04:08.337Z,99.99
2017-02-22T03:05:19.041Z,99.99
2017-02-22T03:06:29.770Z,99.99
2017-02-22T03:07:40.465Z,99.99
2017-02-22T03:08:51.166Z,99.99
2017-02-22T03:10:01.863Z,99.99
2017-02-22T03:11:12.161Z,99.99
2017-02-22T03:12:22.871Z,99.99
2017-02-22T03:13:33.594Z,99.99
2017-02-22T03:14:44.294Z,99.99
2017-02-22T03:15:55.011Z,99.99
2017-02-22T03:17:05.713Z,99.99
2017-02-22T03:18:15.747Z,99.99
2017-02-22T03:19:26.458Z,99.99
2017-02-22T03:20:36.374Z,99.99
2017-02-22T03:21:47.076Z,99.99
2017-02-22T03:22:57.783Z,99.99
2017-02-22T03:24:08.500Z,99.99
2017-02-22T03:25:19.203Z,99.99
2017-02-22T03:26:29.508Z,99.99
2017-02-22T03:27:40.255Z,99.99
2017-02-22T03:28:50.955Z,99.99
2017-02-22T03:30:01.255Z,99.99
2017-02-22T03:31:11.945Z,99.99
2017-02-22T03:32:22.644Z,99.99
2017-02-22T03:33:32.969Z,99.99
2017-02-22T03:34:43.679Z,99.99
2017-02-22T03:35:54.385Z,99.99
2017-02-22T03:37:04.698Z,99.99
2017-02-22T03:38:15.405Z,99.99
2017-02-22T03:39:26.122Z,99.99
2017-02-22T03:40:36.841Z,99.99
2017-02-22T03:41:47.544Z,99.99
2017-02-22T03:42:58.230Z,99.99
2017-02-22T03:44:08.535Z,99.99
2017-02-22T03:45:18.830Z,99.99
2017-02-22T03:46:29.539Z,99.99
2017-02-22T03:47:40.236Z,99.99
2017-02-22T03:48:50.924Z,99.99
2017-02-22T03:50:01.623Z,99.99
2017-02-22T03:51:12.334Z,99.99
2017-02-22T03:52:23.044Z,99.99
2017-02-22T03:53:33.339Z,99.99
2017-02-22T03:54:44.036Z,99.99
2017-02-22T03:55:54.367Z,99.99
2017-02-22T03:57:05.066Z,99.99
2017-02-22T03:58:15.771Z,99.99
2017-02-22T03:59:25.691Z,99.99
2017-02-22T04:00:36.386Z,99.99
2017-02-22T04:01:47.100Z,99.99
2017-02-22T04:02:57.795Z,99.99
2017-02-22T04:04:08.506Z,99.99
2017-02-22T04:05:18.811Z,99.99
2017-02-22T04:06:29.121Z,99.99
2017-02-22T04:07:39.815Z,99.99
2017-02-22T04:08:50.524Z,99.99
2017-02-22T04:10:00.836Z,99.99
2017-02-22T04:11:11.547Z,99.99
2017-02-22T04:12:22.249Z,99.99
2017-02-22T04:13:32.553Z,99.99
2017-02-22T04:14:43.256Z,99.99
2017-02-22T04:15:53.155Z,99.99
2017-02-22T04:17:03.867Z,99.99
2017-02-22T04:18:14.576Z,99.99
2017-02-22T04:19:25.280Z,99.99
2017-02-22T04:20:35.574Z,99.99
2017-02-22T04:21:45.875Z,99.99
2017-02-22T04:22:56.201Z,99.99
2017-02-22T04:24:06.919Z,99.99
2017-02-22T04:25:17.231Z,99.99
2017-02-22T04:26:27.938Z,99.99
2017-02-22T04:27:38.643Z,99.99
2017-02-22T04:28:49.350Z,99.99
2017-02-22T04:30:00.073Z,99.99
2017-02-22T04:31:10.375Z,99.99
2017-02-22T04:32:21.061Z,99.99
2017-02-22T04:33:31.775Z,99.99
2017-02-22T04:34:42.486Z,99.99
2017-02-22T04:35:52.793Z,99.99
2017-02-22T04:37:03.494Z,99.99
2017-02-22T04:38:14.199Z,99.99
2017-02-22T04:39:24.893Z,99.99
2017-02-22T04:40:35.208Z,99.99
2017-02-22T04:41:45.956Z,99.99
2017-02-22T04:42:56.270Z,99.99
2017-02-22T04:44:06.967Z,99.99
2017-02-22T04:45:17.290Z,99.99
2017-02-22T04:46:27.994Z,99.99
2017-02-22T04:47:38.700Z,99.99
2017-02-22T04:48:49.427Z,99.99
2017-02-22T04:50:00.133Z,99.99
2017-02-22T04:51:10.457Z,99.99
2017-02-22T04:52:21.163Z,99.99
2017-02-22T04:53:31.871Z,99.99
2017-02-22T04:54:42.582Z,99.99
2017-02-22T04:55:52.907Z,99.99
2017-02-22T04:57:03.604Z,99.99
2017-02-22T04:58:13.560Z,99.99
2017-02-22T04:59:24.270Z,99.99
2017-02-22T05:00:34.967Z,99.99
2017-02-22T05:01:45.266Z,99.99
2017-02-22T05:02:55.176Z,99.99
2017-02-22T05:04:05.899Z,99.99
2017-02-22T05:05:16.215Z,99.99
2017-02-22T05:06:26.936Z,99.99
2017-02-22T05:07:37.634Z,99.99
2017-02-22T05:08:48.358Z,99.99
2017-02-22T05:09:58.672Z,99.99
2017-02-22T05:11:08.969Z,99.99
2017-02-22T05:12:19.673Z,99.99
2017-02-22T05:13:29.978Z,99.99
2017-02-22T05:14:40.672Z,99.99
2017-02-22T05:15:51.389Z,99.99
2017-02-22T05:17:01.710Z,99.99
2017-02-22T05:18:12.418Z,99.99
2017-02-22T05:19:22.724Z,99.99
2017-02-22T05:20:33.423Z,99.99
2017-02-22T05:21:44.131Z,99.99
2017-02-22T05:22:54.831Z,99.99
2017-02-22T05:24:05.522Z,99.99
2017-02-22T05:25:15.839Z,99.99
2017-02-22T05:26:26.139Z,99.99
2017-02-22T05:27:36.844Z,99.99
2017-02-22T05:28:47.566Z,99.99
2017-02-22T05:29:57.870Z,99.99
2017-02-22T05:31:08.600Z,99.99
2017-02-22T05:32:19.302Z,99.99
2017-02-22T05:33:29.606Z,99.99
2017-02-22T05:34:40.299Z,99.99
2017-02-22T05:35:50.620Z,99.99
2017-02-22T05:37:01.325Z,99.99
2017-02-22T05:38:12.036Z,99.99
2017-02-22T05:39:22.747Z,99.99
2017-02-22T05:40:33.458Z,99.99
2017-02-22T05:41:44.155Z,99.99
2017-02-22T05:42:54.100Z,99.99
2017-02-22T05:44:04.400Z,99.99
2017-02-22T05:45:14.720Z,99.99
2017-02-22T05:46:25.428Z,99.99
2017-02-22T05:47:36.140Z,99.99
2017-02-22T05:48:46.450Z,99.99
2017-02-22T05:49:57.149Z,99.99
2017-02-22T05:51:07.866Z,99.99
2017-02-22T05:52:18.578Z,99.99
2017-02-22T05:53:28.892Z,99.99
2017-02-22T05:54:39.213Z,99.99
2017-02-22T05:55:49.918Z,99.99
2017-02-22T05:57:02.611Z,99.99
2017-02-22T05:58:13.324Z,99.99
2017-02-22T05:59:24.030Z,99.99
2017-02-22T06:00:34.729Z,99.99
2017-02-22T06:01:45.440Z,99.99
2017-02-22T06:02:56.152Z,99.99
2017-02-22T06:04:06.854Z,99.99
2017-02-22T06:05:17.561Z,99.99
2017-02-22T06:06:28.287Z,99.99
2017-02-22T06:07:38.984Z,99.99
2017-02-22T06:08:49.695Z,99.99
2017-02-22T06:10:00.004Z,99.99
2017-02-22T06:11:10.721Z,99.99
2017-02-22T06:12:21.434Z,99.99
2017-02-22T06:13:32.126Z,99.99
2017-02-22T06:14:42.833Z,99.99
2017-02-22T06:15:53.540Z,99.99
2017-02-22T06:17:04.228Z,99.99
2017-02-22T06:18:14.136Z,99.99
2017-02-22T06:19:24.427Z,99.99
2017-02-22T06:20:34.744Z,99.99
2017-02-22T06:21:45.452Z,99.99
2017-02-22T06:22:56.157Z,99.99
2017-02-22T06:24:06.865Z,99.99
2017-02-22T06:25:17.176Z,99.99
2017-02-22T06:26:27.905Z,99.99
2017-02-22T06:27:38.216Z,99.99
2017-02-22T06:28:48.613Z,99.99
2017-02-22T06:29:59.321Z,99.99
2017-02-22T06:31:09.635Z,99.99
2017-02-22T06:32:20.331Z,99.99
2017-02-22T06:33:30.633Z,99.99
2017-02-22T06:34:41.335Z,99.99
2017-02-22T06:35:52.042Z,99.99
2017-02-22T06:37:02.767Z,99.99
2017-02-22T06:38:13.086Z,99.99
2017-02-22T06:39:23.812Z,99.99
2017-02-22T06:40:34.523Z,99.99
2017-02-22T06:41:45.242Z,99.99
2017-02-22T06:42:55.973Z,99.99
2017-02-22T06:44:06.663Z,99.99
2017-02-22T06:45:17.358Z,99.99
2017-02-22T06:46:28.067Z,99.99
2017-02-22T06:47:38.757Z,99.99
2017-02-22T06:48:49.468Z,99.99
2017-02-22T06:50:00.189Z,99.99
2017-02-22T06:51:10.883Z,99.99
2017-02-22T06:52:21.590Z,99.99
2017-02-22T06:53:31.904Z,99.99
2017-02-22T06:54:42.605Z,99.99
2017-02-22T06:55:52.908Z,99.99
2017-02-22T06:57:03.620Z,99.99
2017-02-22T06:58:13.919Z,99.99
2017-02-22T06:59:24.630Z,99.99
2017-02-22T07:00:35.333Z,99.99
2017-02-22T07:01:46.099Z,99.99
2017-02-22T07:02:56.805Z,99.99
2017-02-22T07:04:07.111Z,99.99
2017-02-22T07:05:17.443Z,99.76
2017-02-22T07:06:28.147Z,99.95
2017-02-22T07:07:38.859Z,99.99
2017-02-22T07:08:49.587Z,99.95
2017-02-22T07:09:59.887Z,99.99
2017-02-22T07:11:10.589Z,99.52
2017-02-22T07:12:20.890Z,99.24
2017-02-22T07:13:31.586Z,99.52
2017-02-22T07:14:42.290Z,98.96
2017-02-22T07:15:52.990Z,99.9
2017-02-22T07:17:03.716Z,99.99
2017-02-22T07:18:14.406Z,99.15
2017-02-22T07:19:25.108Z,99.43
2017-02-22T07:20:35.415Z,99.05
2017-02-22T07:21:46.125Z,99.62
2017-02-22T07:22:56.831Z,99.71
2017-02-22T07:24:07.140Z,99.24
2017-02-22T07:25:17.448Z,99.62
2017-02-22T07:26:28.153Z,99.8
2017-02-22T07:27:38.852Z,99.24
2017-02-22T07:28:48.753Z,99.62
2017-02-22T07:29:59.088Z,99.62
2017-02-22T07:31:09.792Z,99.52
2017-02-22T07:32:20.099Z,98.58
2017-02-22T07:33:30.787Z,99.15
2017-02-22T07:34:41.492Z,98.48
2017-02-22T07:35:52.186Z,98.67
2017-02-22T07:37:02.911Z,98.77
2017-02-22T07:38:13.213Z,98.67
2017-02-22T07:39:23.933Z,98.86
2017-02-22T07:40:34.634Z,98.77
2017-02-22T07:41:44.955Z,98.48
2017-02-22T07:42:54.454Z,98.29
2017-02-22T07:44:05.159Z,98.77
2017-02-22T07:45:15.488Z,98.39
2017-02-22T07:46:26.188Z,98.77
2017-02-22T07:47:36.880Z,98.58
2017-02-22T07:48:47.624Z,98.58
2017-02-22T07:49:58.330Z,98.58
2017-02-22T07:51:09.024Z,98.86
2017-02-22T07:52:19.739Z,98.86
2017-02-22T07:53:30.442Z,98.58
2017-02-22T07:54:41.145Z,98.86
2017-02-22T07:55:51.846Z,98.29
2017-02-22T07:57:02.571Z,98.01
2017-02-22T07:58:13.287Z,97.91
2017-02-22T07:59:24.002Z,98.1
2017-02-22T08:00:34.702Z,97.91
2017-02-22T08:01:45.409Z,98.29
2017-02-22T08:02:56.101Z,98.01
2017-02-22T08:04:06.798Z,98.01
2017-02-22T08:05:17.093Z,97.63
2017-02-22T08:06:27.789Z,98.01
2017-02-22T08:07:38.486Z,98.1
2017-02-22T08:08:49.187Z,98.01
2017-02-22T08:09:59.892Z,97.34
2017-02-22T08:11:10.220Z,97.44
2017-02-22T08:12:20.922Z,96.88
2017-02-22T08:13:31.619Z,97.53
2017-02-22T08:14:42.343Z,97.82
2017-02-22T08:15:52.643Z,97.34
2017-02-22T08:17:03.341Z,97.16
2017-02-22T08:18:13.654Z,97.53
2017-02-22T08:19:24.343Z,97.34
2017-02-22T08:20:35.038Z,97.53
2017-02-22T08:21:45.774Z,97.25
2017-02-22T08:22:56.099Z,97.34
2017-02-22T08:24:06.803Z,97.53
2017-02-22T08:25:17.093Z,96.97
2017-02-22T08:26:27.799Z,97.06
2017-02-22T08:27:38.104Z,96.97
2017-02-22T08:28:48.805Z,96.59
2017-02-22T08:29:59.105Z,96.78
2017-02-22T08:31:09.801Z,96.4
2017-02-22T08:32:20.512Z,96.4
2017-02-22T08:33:30.817Z,96.31
2017-02-22T08:34:41.134Z,96.31
2017-02-22T08:35:51.846Z,95.93
2017-02-22T08:37:02.546Z,95.83
2017-02-22T08:38:12.856Z,95.93
2017-02-22T08:39:23.163Z,95.55
2017-02-22T08:40:33.860Z,95.64
2017-02-22T08:41:44.550Z,95.45
2017-02-22T08:42:55.250Z,95.74
2017-02-22T08:44:05.957Z,95.74
2017-02-22T08:45:16.265Z,95.55
2017-02-22T08:46:26.966Z,95.93
2017-02-22T08:47:37.672Z,95.74
2017-02-22T08:48:48.369Z,94.89
2017-02-22T08:49:59.070Z,95.36
2017-02-22T08:51:09.766Z,95.74
2017-02-22T08:52:20.062Z,95.93
2017-02-22T08:53:30.752Z,95.74
2017-02-22T08:54:41.453Z,96.12
2017-02-22T08:55:52.181Z,95.83
2017-02-22T08:57:02.890Z,96.4
2017-02-22T08:58:12.818Z,96.12
2017-02-22T08:59:23.531Z,96.21
2017-02-22T09:00:34.263Z,96.02
2017-02-22T09:01:44.557Z,95.17
2017-02-22T09:02:55.259Z,95.55
2017-02-22T09:04:05.579Z,96.35
2017-02-22T09:05:15.105Z,96.78
2017-02-22T09:06:25.801Z,96.69
2017-02-22T09:07:36.498Z,96.59
2017-02-22T09:08:46.800Z,96.59
2017-02-22T09:09:57.107Z,96.31
2017-02-22T09:11:07.815Z,96.31
2017-02-22T09:12:18.523Z,96.31
2017-02-22T09:13:29.217Z,95.64
2017-02-22T09:14:39.925Z,95.64
2017-02-22T09:15:50.245Z,95.17
2017-02-22T09:17:00.179Z,95.55
2017-02-22T09:18:10.899Z,94.7
2017-02-22T09:19:21.618Z,95.07
2017-02-22T09:20:32.378Z,95.26
2017-02-22T09:21:43.086Z,95.26
2017-02-22T09:22:53.775Z,95.36
2017-02-22T09:24:04.497Z,95.17
2017-02-22T09:25:15.211Z,95.36
2017-02-22T09:26:25.917Z,95.17
2017-02-22T09:27:36.644Z,95.83
2017-02-22T09:28:47.335Z,95.36
2017-02-22T09:29:57.630Z,95.36
2017-02-22T09:31:07.946Z,94.89
2017-02-22T09:32:18.262Z,94.98
2017-02-22T09:33:28.954Z,94.7
2017-02-22T09:34:39.603Z,93.94
2017-02-22T09:35:50.313Z,93.94
2017-02-22T09:37:01.037Z,94.51
2017-02-22T09:38:11.736Z,93.94
2017-02-22T09:39:22.453Z,94.04
2017-02-22T09:40:33.153Z,94.13
2017-02-22T09:41:43.903Z,93.94
2017-02-22T09:42:54.210Z,93.94
2017-02-22T09:44:04.919Z,93.85
2017-02-22T09:45:14.833Z,93.56
2017-02-22T09:46:25.546Z,93.85
2017-02-22T09:47:36.266Z,93.56
2017-02-22T09:48:46.954Z,93.75
2017-02-22T09:49:57.659Z,93.94
2017-02-22T09:51:08.378Z,94.04
2017-02-22T09:52:19.099Z,93.28
2017-02-22T09:53:29.427Z,93.09
2017-02-22T09:54:40.136Z,93.09
2017-02-22T09:55:50.842Z,93.09
2017-02-22T09:57:01.543Z,92.71
2017-02-22T09:58:12.268Z,92.57
2017-02-22T09:59:22.971Z,92.47
2017-02-22T10:00:33.657Z,91.72
2017-02-22T10:01:44.375Z,91.72
2017-02-22T10:02:55.076Z,91.24
2017-02-22T10:04:05.397Z,91.15
2017-02-22T10:05:15.727Z,90.96
2017-02-22T10:06:26.021Z,90.3
2017-02-22T10:07:36.728Z,90.01
2017-02-22T10:08:47.434Z,90.11
2017-02-22T10:09:58.152Z,90.2
2017-02-22T10:11:08.459Z,90.01
2017-02-22T10:12:19.163Z,90.01
2017-02-22T10:13:29.075Z,89.73
2017-02-22T10:14:39.390Z,89.54
2017-02-22T10:15:49.732Z,88.87
2017-02-22T10:17:00.043Z,88.78
2017-02-22T10:18:10.737Z,89.82
2017-02-22T10:19:21.442Z,89.63
2017-02-22T10:20:32.148Z,89.82
2017-02-22T10:21:42.844Z,89.63
2017-02-22T10:22:53.548Z,89.92
2017-02-22T10:24:03.481Z,89.82
2017-02-22T10:25:13.807Z,89.82
2017-02-22T10:26:24.520Z,90.01
2017-02-22T10:27:35.234Z,90.3
2017-02-22T10:28:45.935Z,90.2
2017-02-22T10:29:56.642Z,90.11
2017-02-22T10:31:06.953Z,89.92
2017-02-22T10:32:17.663Z,89.63
2017-02-22T10:33:27.578Z,90.11
2017-02-22T10:34:38.295Z,89.54
2017-02-22T10:35:48.598Z,89.63
2017-02-22T10:36:58.901Z,89.63
2017-02-22T10:38:09.594Z,89.44
2017-02-22T10:39:20.322Z,89.87
2017-02-22T10:40:31.034Z,89.87
2017-02-22T10:41:41.739Z,89.3
2017-02-22T10:42:52.453Z,89.3
2017-02-22T10:44:03.162Z,89.58
2017-02-22T10:45:13.469Z,89.3
2017-02-22T10:46:23.774Z,89.2
2017-02-22T10:47:34.481Z,89.01
2017-02-22T10:48:45.215Z,89.2
2017-02-22T10:49:55.919Z,88.45
2017-02-22T10:51:06.611Z,88.45
2017-02-22T10:52:16.904Z,88.64
2017-02-22T10:53:27.626Z,89.3
2017-02-22T10:54:38.334Z,88.54
2017-02-22T10:55:49.050Z,88.54
2017-02-22T10:56:59.776Z,88.17
2017-02-22T10:58:10.481Z,88.17
2017-02-22T10:59:20.785Z,87.78
2017-02-22T11:00:31.503Z,87.78
2017-02-22T11:01:42.226Z,87.88
2017-02-22T11:02:52.916Z,87.88
2017-02-22T11:04:03.629Z,87.21
2017-02-22T11:05:13.945Z,87.88
2017-02-22T11:06:24.253Z,87.54
2017-02-22T11:07:34.960Z,86.6
2017-02-22T11:08:45.675Z,85.36
2017-02-22T11:09:55.978Z,84.99
2017-02-22T11:11:05.892Z,83.8
2017-02-22T11:12:16.600Z,83.04
2017-02-22T11:13:27.338Z,81.71
2017-02-22T11:14:38.040Z,81.66
2017-02-22T11:15:48.357Z,81.56
2017-02-22T11:16:59.056Z,80.37
2017-02-22T11:18:09.771Z,80.27
2017-02-22T11:19:19.279Z,79.23
2017-02-22T11:20:30.027Z,78.03
2017-02-22T11:21:40.740Z,77.66
2017-02-22T11:22:51.434Z,77.66
2017-02-22T11:24:02.168Z,76.08
2017-02-22T11:25:12.919Z,76.18
2017-02-22T11:26:23.219Z,75.7
2017-02-22T11:27:33.951Z,74.94
2017-02-22T11:28:44.659Z,72.75
2017-02-22T11:29:55.002Z,72.38
2017-02-22T11:31:05.724Z,73.33
2017-02-22T11:32:16.047Z,74.41
2017-02-22T11:33:26.749Z,73.27
2017-02-22T11:34:37.458Z,71.75
2017-02-22T11:35:48.177Z,71.22
2017-02-22T11:36:58.501Z,70.64
2017-02-22T11:38:09.215Z,69.41
2017-02-22T11:39:19.517Z,67.32
2017-02-22T11:40:30.233Z,67.41
2017-02-22T11:41:40.564Z,67.32
2017-02-22T11:42:50.888Z,67.13
2017-02-22T11:44:01.600Z,68.59
2017-02-22T11:45:12.312Z,69.92
2017-02-22T11:46:23.013Z,71.09
2017-02-22T11:47:33.725Z,71.22
2017-02-22T11:48:44.029Z,70.75
2017-02-22T11:49:54.732Z,68.88
2017-02-22T11:51:05.042Z,65.36
2017-02-22T11:52:15.780Z,66.88
2017-02-22T11:53:26.489Z,66.15
2017-02-22T11:54:37.202Z,66.53
2017-02-22T11:55:47.513Z,67.29
2017-02-22T11:56:58.221Z,66.09
2017-02-22T11:58:08.545Z,66.75
2017-02-22T11:59:19.277Z,65.23
2017-02-22T12:00:29.997Z,66.02
2017-02-22T12:01:40.320Z,65.77
2017-02-22T12:02:50.650Z,64.53
2017-02-22T12:04:01.387Z,62.84
2017-02-22T12:05:11.700Z,61.98
2017-02-22T12:06:22.024Z,61.72
2017-02-22T12:07:33.014Z,60.49
2017-02-22T12:08:43.740Z,62.4
2017-02-22T12:09:54.052Z,62.81
2017-02-22T12:11:04.763Z,62.27
2017-02-22T12:12:15.077Z,61.69
2017-02-22T12:13:25.796Z,61.63
2017-02-22T12:14:36.506Z,60.77
2017-02-22T12:15:47.263Z,59.27
2017-02-22T12:16:57.988Z,60.51
2017-02-22T12:18:08.725Z,59.55
2017-02-22T12:19:19.436Z,58.5
2017-02-22T12:20:30.160Z,58.44
2017-02-22T12:21:40.911Z,57.92
2017-02-22T12:22:51.647Z,57.83
2017-02-22T12:24:02.382Z,58.4
2017-02-22T12:25:13.092Z,57.64
2017-02-22T12:26:23.811Z,55.73
2017-02-22T12:27:34.541Z,57.64
2017-02-22T12:28:45.277Z,55.73
2017-02-22T12:29:55.999Z,56.13
2017-02-22T12:31:06.711Z,55.56
2017-02-22T12:32:17.047Z,54.41
2017-02-22T12:33:27.369Z,54.5
2017-02-22T12:34:38.080Z,54.91
2017-02-22T12:35:48.794Z,53
2017-02-22T12:36:59.117Z,54.44
2017-02-22T12:38:09.860Z,54.66
2017-02-22T12:39:20.185Z,53.89
2017-02-22T12:40:30.899Z,53.91
2017-02-22T12:41:41.616Z,52.76
2017-02-22T12:42:52.329Z,52.64
2017-02-22T12:44:02.659Z,52.16
2017-02-22T12:45:13.367Z,52.55
2017-02-22T12:46:23.753Z,51.1
2017-02-22T12:47:34.482Z,51.85
2017-02-22T12:48:45.206Z,52.23
2017-02-22T12:49:55.126Z,50.99
2017-02-22T12:51:05.466Z,52.01
2017-02-22T12:52:16.182Z,52.52
2017-02-22T12:53:26.900Z,52.62
2017-02-22T12:54:37.222Z,52.14
2017-02-22T12:55:47.538Z,52.11
2017-02-22T12:56:57.905Z,52.11
2017-02-22T12:58:08.638Z,52.14
2017-02-22T12:59:19.359Z,51.18
2017-02-22T13:00:30.082Z,52.04
2017-02-22T13:01:40.798Z,50.63
2017-02-22T13:02:51.530Z,49.96
2017-02-22T13:04:02.251Z,50.05
2017-02-22T13:05:12.974Z,49.86
2017-02-22T13:06:23.294Z,49.48
2017-02-22T13:07:34.013Z,47.85
2017-02-22T13:08:44.738Z,49.84
2017-02-22T13:09:55.458Z,49.43
2017-02-22T13:11:05.782Z,49.88
2017-02-22T13:12:15.726Z,50.84
2017-02-22T13:13:26.056Z,50.62
2017-02-22T13:14:36.774Z,51.01
2017-02-22T13:15:47.497Z,50.12
2017-02-22T13:16:57.830Z,51.05
2017-02-22T13:18:08.558Z,51.6
2017-02-22T13:19:18.877Z,51.67
2017-02-22T13:20:29.606Z,52.57
2017-02-22T13:21:40.320Z,54.71
2017-02-22T13:22:50.639Z,56.49
2017-02-22T13:24:01.369Z,58.47
2017-02-22T13:25:12.100Z,59.2
2017-02-22T13:26:22.820Z,60.69
2017-02-22T13:27:33.541Z,61.64
2017-02-22T13:28:44.283Z,61.35
2017-02-22T13:29:55.001Z,62.65
2017-02-22T13:31:05.752Z,64.53
2017-02-22T13:32:16.470Z,65.44
2017-02-22T13:33:27.190Z,66.67
2017-02-22T13:34:37.901Z,66.96
2017-02-22T13:35:48.651Z,67.88
2017-02-22T13:36:58.588Z,68.54
2017-02-22T13:38:08.507Z,67.97
2017-02-22T13:39:19.231Z,68.83
2017-02-22T13:40:29.950Z,68.35
2017-02-22T13:41:40.658Z,69.3
2017-02-22T13:42:51.380Z,69.59
2017-02-22T13:44:01.696Z,69.49
2017-02-22T13:45:12.415Z,69.55
2017-02-22T13:46:22.731Z,70.98
2017-02-22T13:47:33.456Z,72.3
2017-02-22T13:48:44.166Z,73.5
2017-02-22T13:49:54.889Z,74.26
2017-02-22T13:51:05.200Z,75.21
2017-02-22T13:52:15.112Z,76.59
2017-02-22T13:53:25.823Z,76.5
2017-02-22T13:54:36.534Z,77.64
2017-02-22T13:55:47.245Z,78.58
2017-02-22T13:56:57.575Z,78.11
2017-02-22T13:58:08.297Z,78.02
2017-02-22T13:59:18.598Z,78.11
2017-02-22T14:00:29.289Z,78.11
2017-02-22T14:01:40.015Z,77.73
2017-02-22T14:02:50.714Z,78.39
2017-02-22T14:04:01.029Z,79.87
2017-02-22T14:05:11.366Z,80.53
2017-02-22T14:06:22.070Z,81.2
2017-02-22T14:07:32.777Z,81.57
2017-02-22T14:08:43.479Z,81.67
2017-02-22T14:09:53.799Z,81.76
2017-02-22T14:11:04.115Z,82.29
2017-02-22T14:12:14.418Z,83.05
2017-02-22T14:13:25.137Z,83.05
2017-02-22T14:14:35.851Z,83.14
2017-02-22T14:15:46.576Z,83.05
2017-02-22T14:16:56.883Z,82.86
2017-02-22T14:18:07.587Z,82.95
2017-02-22T14:19:17.895Z,82.1
2017-02-22T14:20:28.609Z,82.01
2017-02-22T14:21:38.929Z,81.92
2017-02-22T14:22:49.633Z,82.2
2017-02-22T14:23:59.935Z,83.24
2017-02-22T14:25:10.663Z,83.33
2017-02-22T14:26:21.372Z,84
2017-02-22T14:27:32.067Z,83.14
2017-02-22T14:28:42.774Z,83.14
2017-02-22T14:29:52.688Z,83.81
2017-02-22T14:31:03.014Z,83.9
2017-02-22T14:32:12.932Z,83.52
2017-02-22T14:33:22.867Z,83.71
2017-02-22T14:34:33.605Z,83.71
2017-02-22T14:35:44.314Z,83.9
2017-02-22T14:36:55.046Z,83.81
2017-02-22T14:38:04.957Z,84
2017-02-22T14:39:15.289Z,84.94
2017-02-22T14:40:26.014Z,85.61
2017-02-22T14:41:36.719Z,85.8
2017-02-22T14:42:47.428Z,86.41
2017-02-22T14:43:58.136Z,86.7
2017-02-22T14:45:08.843Z,86.7
2017-02-22T14:46:19.555Z,87.46
2017-02-22T14:47:30.301Z,87.36
2017-02-22T14:48:41.011Z,88.02
2017-02-22T14:49:51.309Z,88.31
2017-02-22T14:51:01.639Z,88.49
2017-02-22T14:52:12.338Z,88.78
2017-02-22T14:53:23.051Z,88.78
2017-02-22T14:54:33.779Z,89.06
2017-02-22T14:55:44.498Z,89.92
2017-02-22T14:56:55.207Z,89.59
2017-02-22T14:58:05.557Z,90.16
2017-02-22T14:59:15.882Z,89.87
2017-02-22T15:00:26.599Z,89.97
2017-02-22T15:01:37.311Z,89.59
2017-02-22T15:02:48.035Z,89.5
2017-02-22T15:03:58.741Z,89.31
2017-02-22T15:05:09.446Z,89.02
2017-02-22T15:06:19.743Z,89.06
2017-02-22T15:07:30.451Z,89.12
2017-02-22T15:08:41.145Z,89.25
2017-02-22T15:09:51.854Z,89.06
2017-02-22T15:11:02.577Z,89.21